Time;durP1;ratioP1;P1;durP2;ratioP2;P2;SDS_P1;SDS_P2;PMS_P1;PMS_P2;Temp;Humidity;BMP_temperature;BMP_pressure;BME280_temperature;BME280_humidity;BME280_pressure;Samples;Min_cycle;Max_cycle;Signal;HPM_P1;HPM_P2
2022/09/30 00:01:08;;;;;;;16.03;11.83;;;;;;;;;;5017761;28;20183;-68
2022/09/30 00:03:35;;;;;;;18.17;13.27;;;;;;;;;;5017700;28;20567;-68
2022/09/30 00:06:03;;;;;;;17.40;11.60;;;;;;;;;;5035865;28;20684;-68
2022/09/30 00:08:29;;;;;;;18.17;12.00;;;;;;;;;;5035369;28;20238;-68
2022/09/30 00:11:02;;;;;;;16.30;12.23;;;;;;;;;;5062481;23;20710;-69
2022/09/30 00:13:28;;;;;;;16.47;12.13;;;;;;;;;;5055193;28;20174;-69
2022/09/30 00:15:54;;;;;;;17.60;11.73;;;;;;;;;;5055074;28;20544;-70
2022/09/30 00:18:21;;;;;;;18.97;12.23;;;;;;;;;;5055021;28;20352;-69
2022/09/30 00:20:47;;;;;;;12.73;11.43;;;;;;;;;;5054868;28;20195;-70
2022/09/30 00:23:13;;;;;;;16.63;11.53;;;;;;;;;;5054076;28;20237;-69
2022/09/30 00:25:39;;;;;;;16.00;11.63;;;;;;;;;;5055263;28;20182;-70
2022/09/30 00:28:06;;;;;;;19.10;11.97;;;;;;;;;;5053729;28;20185;-68
2022/09/30 00:30:33;;;;;;;14.57;11.80;;;;;;;;;;5053401;28;20206;-69
2022/09/30 00:32:59;;;;;;;18.17;12.00;;;;;;;;;;5054785;28;20171;-70
2022/09/30 00:35:24;;;;;;;19.67;11.60;;;;;;;;;;5054711;28;20711;-69
2022/09/30 00:37:51;;;;;;;14.57;10.80;;;;;;;;;;5054693;28;20665;-69
2022/09/30 00:40:19;;;;;;;13.67;10.97;;;;;;;;;;5054848;28;20289;-69
2022/09/30 00:42:45;;;;;;;15.77;11.83;;;;;;;;;;5054635;28;20241;-68
2022/09/30 00:45:12;;;;;;;15.03;11.50;;;;;;;;;;5053322;28;20190;-69
2022/09/30 00:47:46;;;;;;;15.27;11.40;;;;;;;;;;5054563;28;20175;-70
2022/09/30 00:50:35;;;;;;;14.23;12.70;;;;;;;;;;5054578;28;20233;-70
2022/09/30 00:53:04;;;;;;;15.33;11.20;;;;;;;;;;5046559;28;20202;-71
2022/09/30 00:55:49;;;;;;;16.33;11.43;;;;;;;;;;5053065;28;20647;-69
2022/09/30 00:58:28;;;;;;;14.90;11.00;;;;;;;;;;5053170;28;20271;-67
2022/09/30 01:00:54;;;;;;;13.50;11.07;;;;;;;;;;5054221;28;20194;-69
2022/09/30 01:03:21;;;;;;;13.67;11.37;;;;;;;;;;5053003;28;20186;-70
2022/09/30 01:05:48;;;;;;;14.37;10.73;;;;;;;;;;5052892;28;20190;-69
2022/09/30 01:08:17;;;;;;;15.23;11.60;;;;;;;;;;5054119;28;20182;-70
2022/09/30 01:10:43;;;;;;;13.33;11.20;;;;;;;;;;5052562;28;20214;-69
2022/09/30 01:13:09;;;;;;;13.27;10.50;;;;;;;;;;5054338;28;20600;-70
2022/09/30 01:15:51;;;;;;;15.37;11.60;;;;;;;;;;5052777;28;20209;-70
2022/09/30 01:18:40;;;;;;;13.40;11.13;;;;;;;;;;5054215;28;20163;-70
2022/09/30 01:21:25;;;;;;;18.07;11.30;;;;;;;;;;5045885;28;20708;-69
2022/09/30 01:24:09;;;;;;;13.97;10.83;;;;;;;;;;5053830;28;20232;-70
2022/09/30 01:26:47;;;;;;;16.90;11.23;;;;;;;;;;5054076;28;20186;-70
2022/09/30 01:29:26;;;;;;;14.47;10.73;;;;;;;;;;5053877;28;20259;-68
2022/09/30 01:32:01;;;;;;;15.00;10.27;;;;;;;;;;5052108;28;20205;-70
2022/09/30 01:34:36;;;;;;;17.63;11.50;;;;;;;;;;5053887;28;20235;-69
2022/09/30 01:37:14;;;;;;;12.87;10.77;;;;;;;;;;5052776;28;20231;-70
2022/09/30 01:40:03;;;;;;;14.50;10.30;;;;;;;;;;5053610;28;20206;-70
2022/09/30 01:42:47;;;;;;;11.47;10.23;;;;;;;;;;5053591;28;20159;-69
2022/09/30 01:45:13;;;;;;;16.60;10.90;;;;;;;;;;5052251;28;20224;-69
2022/09/30 01:47:51;;;;;;;15.13;10.77;;;;;;;;;;5053663;28;20618;-71
2022/09/30 01:50:40;;;;;;;11.63;10.17;;;;;;;;;;5053311;28;20290;-69
2022/09/30 01:53:16;;;;;;;13.07;10.43;;;;;;;;;;5041817;28;20666;-70
2022/09/30 01:55:48;;;;;;;12.53;10.17;;;;;;;;;;5053334;28;20196;-70
2022/09/30 01:58:33;;;;;;;14.83;10.93;;;;;;;;;;5051951;28;20635;-70
2022/09/30 02:01:01;;;;;;;19.93;11.70;;;;;;;;;;5052003;28;20645;-69
2022/09/30 02:03:30;;;;;;;15.83;10.60;;;;;;;;;;5052002;28;20265;-70
2022/09/30 02:06:01;;;;;;;13.10;10.33;;;;;;;;;;5053200;28;20552;-68
2022/09/30 02:08:41;;;;;;;16.50;11.10;;;;;;;;;;5051904;28;20654;-69
2022/09/30 02:11:11;;;;;;;15.50;11.77;;;;;;;;;;5051646;28;20218;-69
2022/09/30 02:13:43;;;;;;;14.13;11.10;;;;;;;;;;5053484;28;20543;-69
2022/09/30 02:16:12;;;;;;;14.80;12.53;;;;;;;;;;5053251;28;20546;-70
2022/09/30 02:18:41;;;;;;;15.10;12.07;;;;;;;;;;5051778;28;20182;-68
2022/09/30 02:21:08;;;;;;;21.93;12.43;;;;;;;;;;5053100;28;20206;-70
2022/09/30 02:23:41;;;;;;;17.27;12.83;;;;;;;;;;5052985;28;20189;-70
2022/09/30 02:26:12;;;;;;;17.27;11.73;;;;;;;;;;5053003;28;20608;-69
2022/09/30 02:28:41;;;;;;;15.47;13.00;;;;;;;;;;5051752;28;20181;-68
2022/09/30 02:31:09;;;;;;;19.93;12.67;;;;;;;;;;5052853;28;20233;-69
2022/09/30 02:33:48;;;;;;;17.63;12.60;;;;;;;;;;5051717;28;20267;-69
2022/09/30 02:36:17;;;;;;;17.83;13.10;;;;;;;;;;5053070;28;20170;-69
2022/09/30 02:38:44;;;;;;;20.67;13.20;;;;;;;;;;5053473;28;20182;-70
2022/09/30 02:41:18;;;;;;;16.00;12.40;;;;;;;;;;5052843;28;20268;-70
2022/09/30 02:43:44;;;;;;;22.17;13.93;;;;;;;;;;5052784;28;20181;-68
2022/09/30 02:46:22;;;;;;;18.30;13.87;;;;;;;;;;5056705;28;20175;-70
2022/09/30 02:48:59;;;;;;;18.63;14.07;;;;;;;;;;5057124;28;20166;-68
2022/09/30 02:51:43;;;;;;;16.43;13.73;;;;;;;;;;5056749;28;20670;-70
2022/09/30 02:54:24;;;;;;;18.70;13.80;;;;;;;;;;5056679;28;20589;-69
2022/09/30 02:56:53;;;;;;;23.00;14.70;;;;;;;;;;5055332;28;20194;-69
2022/09/30 02:59:19;;;;;;;21.07;15.13;;;;;;;;;;5055321;28;20551;-71
2022/09/30 03:01:45;;;;;;;21.60;15.27;;;;;;;;;;5056510;28;20199;-69
2022/09/30 03:04:13;;;;;;;22.83;15.90;;;;;;;;;;5056577;28;20188;-68
2022/09/30 03:06:39;;;;;;;19.07;14.60;;;;;;;;;;5056779;28;20543;-68
2022/09/30 03:09:05;;;;;;;25.53;15.73;;;;;;;;;;5056694;28;20182;-70
2022/09/30 03:11:31;;;;;;;23.80;15.87;;;;;;;;;;5054973;28;20222;-68
2022/09/30 03:14:16;;;;;;;26.27;15.67;;;;;;;;;;5055055;28;20224;-68
2022/09/30 03:17:01;;;;;;;24.53;16.17;;;;;;;;;;5056277;28;20163;-70
2022/09/30 03:19:42;;;;;;;19.93;15.03;;;;;;;;;;5056504;28;20182;-70
2022/09/30 03:22:18;;;;;;;22.00;15.90;;;;;;;;;;5055058;28;20186;-69
2022/09/30 03:25:08;;;;;;;19.73;15.10;;;;;;;;;;5056130;28;20209;-69
2022/09/30 03:27:59;;;;;;;20.10;16.17;;;;;;;;;;5056580;28;20252;-72
2022/09/30 03:30:28;;;;;;;21.03;15.57;;;;;;;;;;5054740;28;20214;-69
2022/09/30 03:33:00;;;;;;;24.03;15.67;;;;;;;;;;5054654;28;20252;-69
2022/09/30 03:35:32;;;;;;;23.47;15.67;;;;;;;;;;5056045;28;20177;-70
2022/09/30 03:38:23;;;;;;;23.27;15.67;;;;;;;;;;5054698;28;20181;-69
2022/09/30 03:40:58;;;;;;;22.07;15.30;;;;;;;;;;5056043;28;20237;-66
2022/09/30 03:43:29;;;;;;;22.13;15.47;;;;;;;;;;5056087;28;20186;-69
2022/09/30 03:46:00;;;;;;;18.97;15.03;;;;;;;;;;5054644;28;20643;-69
2022/09/30 03:48:26;;;;;;;17.53;14.90;;;;;;;;;;5056350;28;20167;-70
2022/09/30 03:50:53;;;;;;;22.60;15.17;;;;;;;;;;5055561;28;20264;-69
2022/09/30 03:53:19;;;;;;;20.00;14.93;;;;;;;;;;5054380;28;20186;-71
2022/09/30 03:55:47;;;;;;;18.97;14.43;;;;;;;;;;5055512;28;20588;-70
2022/09/30 03:58:13;;;;;;;18.00;14.33;;;;;;;;;;5055709;28;20210;-68
2022/09/30 04:00:44;;;;;;;19.70;15.80;;;;;;;;;;5054202;28;20253;-69
2022/09/30 04:03:10;;;;;;;24.27;16.30;;;;;;;;;;5055766;28;20190;-68
2022/09/30 04:05:36;;;;;;;16.70;14.17;;;;;;;;;;5055659;28;20210;-69
2022/09/30 04:08:02;;;;;;;19.63;14.73;;;;;;;;;;5054162;28;20187;-68
2022/09/30 04:10:28;;;;;;;23.13;15.97;;;;;;;;;;5053741;28;20222;-69
2022/09/30 04:12:54;;;;;;;16.40;14.60;;;;;;;;;;5055629;28;20175;-70
2022/09/30 04:15:20;;;;;;;21.83;14.60;;;;;;;;;;5053933;28;20183;-70
2022/09/30 04:17:46;;;;;;;21.80;14.50;;;;;;;;;;5055551;28;20181;-70
2022/09/30 04:20:12;;;;;;;16.30;13.33;;;;;;;;;;5055505;28;20271;-69
2022/09/30 04:22:38;;;;;;;18.57;14.20;;;;;;;;;;5055709;28;20183;-68
2022/09/30 04:25:04;;;;;;;16.73;14.33;;;;;;;;;;5054268;28;20277;-70
2022/09/30 04:27:30;;;;;;;22.20;14.30;;;;;;;;;;5055136;28;20720;-69
2022/09/30 04:29:56;;;;;;;20.27;14.07;;;;;;;;;;5054858;28;20657;-67
2022/09/30 04:32:24;;;;;;;15.40;12.97;;;;;;;;;;5055649;28;20181;-69
2022/09/30 04:34:50;;;;;;;16.23;13.43;;;;;;;;;;5054968;28;20174;-67
2022/09/30 04:37:16;;;;;;;19.87;14.43;;;;;;;;;;5053788;28;20175;-68
2022/09/30 04:39:43;;;;;;;17.73;14.03;;;;;;;;;;5053946;28;20558;-70
2022/09/30 04:42:10;;;;;;;19.40;13.80;;;;;;;;;;5055366;28;20220;-70
2022/09/30 04:44:36;;;;;;;19.60;13.17;;;;;;;;;;5055059;28;20181;-68
2022/09/30 04:47:02;;;;;;;15.60;13.90;;;;;;;;;;5055401;28;20178;-69
2022/09/30 04:49:28;;;;;;;17.27;13.97;;;;;;;;;;5055160;28;20580;-70
2022/09/30 04:51:54;;;;;;;16.87;13.87;;;;;;;;;;5053841;28;20212;-69
2022/09/30 04:54:20;;;;;;;18.50;14.87;;;;;;;;;;5053800;28;20189;-69
2022/09/30 04:56:46;;;;;;;19.10;14.83;;;;;;;;;;5053777;28;20232;-69
2022/09/30 04:59:12;;;;;;;23.87;15.43;;;;;;;;;;5055229;28;20173;-68
2022/09/30 05:01:39;;;;;;;18.53;14.80;;;;;;;;;;5054993;28;20202;-69
2022/09/30 05:04:05;;;;;;;19.43;14.73;;;;;;;;;;5053661;28;20221;-69
2022/09/30 05:06:31;;;;;;;19.73;14.83;;;;;;;;;;5055784;28;20186;-68
2022/09/30 05:08:57;;;;;;;20.00;15.10;;;;;;;;;;5057070;28;20182;-70
2022/09/30 05:11:23;;;;;;;19.07;14.53;;;;;;;;;;5056244;28;20249;-69
2022/09/30 05:13:49;;;;;;;21.90;15.63;;;;;;;;;;5054972;28;20183;-68
2022/09/30 05:16:16;;;;;;;18.03;14.80;;;;;;;;;;5055218;28;20193;-69
2022/09/30 05:18:44;;;;;;;18.23;14.70;;;;;;;;;;5055416;28;20257;-69
2022/09/30 05:21:11;;;;;;;18.77;15.60;;;;;;;;;;5054163;28;20634;-69
2022/09/30 05:23:37;;;;;;;17.90;15.47;;;;;;;;;;5055578;28;20251;-69
2022/09/30 05:26:03;;;;;;;21.07;15.70;;;;;;;;;;5053141;28;20182;-69
2022/09/30 05:28:30;;;;;;;20.80;15.13;;;;;;;;;;5052972;28;20277;-70
2022/09/30 05:31:04;;;;;;;18.17;15.80;;;;;;;;;;5052684;28;20210;-69
2022/09/30 05:33:31;;;;;;;19.77;15.33;;;;;;;;;;5054432;28;20174;-69
2022/09/30 05:36:01;;;;;;;18.67;15.67;;;;;;;;;;5054327;28;20194;-70
2022/09/30 05:38:27;;;;;;;21.23;15.63;;;;;;;;;;5054199;28;20174;-69
2022/09/30 05:40:53;;;;;;;20.07;16.00;;;;;;;;;;5054578;28;20198;-69
2022/09/30 05:43:19;;;;;;;22.17;15.53;;;;;;;;;;5054340;28;20183;-69
2022/09/30 05:45:52;;;;;;;17.23;14.90;;;;;;;;;;5053685;28;20605;-70
2022/09/30 05:48:18;;;;;;;19.33;15.47;;;;;;;;;;5053677;28;20244;-70
2022/09/30 05:50:50;;;;;;;17.97;14.97;;;;;;;;;;5053556;28;20205;-67
2022/09/30 05:53:17;;;;;;;18.77;14.90;;;;;;;;;;5054061;28;20241;-70
2022/09/30 05:55:46;;;;;;;23.17;16.53;;;;;;;;;;5052538;28;20178;-67
2022/09/30 05:58:13;;;;;;;21.03;16.80;;;;;;;;;;5052761;28;20174;-69
2022/09/30 06:00:40;;;;;;;19.03;15.40;;;;;;;;;;5053920;28;20203;-69
2022/09/30 06:03:06;;;;;;;19.70;16.00;;;;;;;;;;5053762;28;20662;-69
2022/09/30 06:05:32;;;;;;;19.60;15.33;;;;;;;;;;5052159;28;20267;-70
2022/09/30 06:07:58;;;;;;;19.33;16.37;;;;;;;;;;5052449;28;20192;-69
2022/09/30 06:10:24;;;;;;;20.20;15.63;;;;;;;;;;5053643;28;20588;-69
2022/09/30 06:12:51;;;;;;;23.37;16.87;;;;;;;;;;5054136;28;20503;-69
2022/09/30 06:15:17;;;;;;;23.13;17.23;;;;;;;;;;5053831;28;20258;-69
2022/09/30 06:17:43;;;;;;;22.63;16.63;;;;;;;;;;5053416;28;20519;-69
2022/09/30 06:20:09;;;;;;;20.40;16.83;;;;;;;;;;5052951;28;20334;-70
2022/09/30 06:22:35;;;;;;;19.13;16.67;;;;;;;;;;5053517;28;20185;-70
2022/09/30 06:25:03;;;;;;;25.70;18.07;;;;;;;;;;5053767;28;20178;-69
2022/09/30 06:27:29;;;;;;;19.00;16.33;;;;;;;;;;5051999;28;20220;-69
2022/09/30 06:29:56;;;;;;;25.97;17.17;;;;;;;;;;5053427;28;20191;-69
2022/09/30 06:32:23;;;;;;;24.70;16.50;;;;;;;;;;5051737;28;20213;-69
2022/09/30 06:34:49;;;;;;;21.87;16.47;;;;;;;;;;5053018;28;20175;-69
2022/09/30 06:37:17;;;;;;;21.30;16.67;;;;;;;;;;5052929;28;20179;-68
2022/09/30 06:39:43;;;;;;;19.57;15.67;;;;;;;;;;5051550;28;20638;-70
2022/09/30 06:42:10;;;;;;;19.70;16.63;;;;;;;;;;5053172;28;20204;-68
2022/09/30 06:44:36;;;;;;;22.80;16.67;;;;;;;;;;5052851;28;20174;-69
2022/09/30 06:47:02;;;;;;;18.97;16.27;;;;;;;;;;5052778;28;20178;-67
2022/09/30 06:49:28;;;;;;;20.43;15.77;;;;;;;;;;5052678;28;20193;-69
2022/09/30 06:51:54;;;;;;;19.63;16.07;;;;;;;;;;5052740;28;20202;-68
2022/09/30 06:54:20;;;;;;;25.30;16.50;;;;;;;;;;5052711;28;20182;-69
2022/09/30 06:56:47;;;;;;;21.23;17.13;;;;;;;;;;5052820;28;20182;-69
2022/09/30 06:59:15;;;;;;;19.13;16.90;;;;;;;;;;5051406;28;20269;-68
2022/09/30 07:01:41;;;;;;;19.93;16.33;;;;;;;;;;5052932;28;20209;-67
2022/09/30 07:04:09;;;;;;;27.07;17.60;;;;;;;;;;5051394;28;20654;-67
2022/09/30 07:06:37;;;;;;;26.30;17.37;;;;;;;;;;5052493;28;20233;-68
2022/09/30 07:09:03;;;;;;;26.23;18.47;;;;;;;;;;5051277;28;20179;-68
2022/09/30 07:11:29;;;;;;;22.47;18.43;;;;;;;;;;5052476;28;20675;-68
2022/09/30 07:13:56;;;;;;;22.20;18.37;;;;;;;;;;5052698;28;20185;-68
2022/09/30 07:16:24;;;;;;;22.73;17.00;;;;;;;;;;5051249;28;20182;-67
2022/09/30 07:18:50;;;;;;;24.07;18.27;;;;;;;;;;5052694;28;20171;-67
2022/09/30 07:21:17;;;;;;;21.97;16.67;;;;;;;;;;5052430;28;20199;-67
2022/09/30 07:23:47;;;;;;;21.90;17.03;;;;;;;;;;5052687;28;20184;-67
2022/09/30 07:26:14;;;;;;;21.20;16.37;;;;;;;;;;5052853;28;20305;-67
2022/09/30 07:28:40;;;;;;;21.97;16.80;;;;;;;;;;5053056;28;20265;-66
2022/09/30 07:31:07;;;;;;;28.70;16.23;;;;;;;;;;5054083;28;20293;-67
2022/09/30 07:33:34;;;;;;;30.67;16.57;;;;;;;;;;5057699;22;20285;-68
2022/09/30 07:36:02;;;;;;;21.57;17.77;;;;;;;;;;5036521;28;20176;-68
2022/09/30 07:38:29;;;;;;;25.23;17.20;;;;;;;;;;5036554;28;20210;-68
2022/09/30 07:40:57;;;;;;;24.17;17.30;;;;;;;;;;5018490;28;20186;-68
2022/09/30 07:43:23;;;;;;;24.33;17.30;;;;;;;;;;5018382;28;20206;-67
2022/09/30 07:45:50;;;;;;;26.07;19.03;;;;;;;;;;5018361;28;20183;-68
2022/09/30 07:51:01;;;;;;;30.93;19.50;;;;;;;;;;5036488;28;20690;-68
2022/09/30 07:53:27;;;;;;;28.30;20.40;;;;;;;;;;5039591;28;20219;-67
2022/09/30 07:55:53;;;;;;;27.93;21.00;;;;;;;;;;5020801;28;20179;-67
2022/09/30 07:58:19;;;;;;;26.60;17.83;;;;;;;;;;5018556;28;20187;-68
2022/09/30 08:00:48;;;;;;;20.43;17.07;;;;;;;;;;5035695;28;20171;-67
2022/09/30 08:03:14;;;;;;;24.57;18.90;;;;;;;;;;5036545;28;20195;-67
2022/09/30 08:05:40;;;;;;;20.87;16.90;;;;;;;;;;5036005;28;20310;-67
2022/09/30 08:08:06;;;;;;;22.80;17.07;;;;;;;;;;5035587;28;20190;-67
2022/09/30 08:10:34;;;;;;;22.30;18.83;;;;;;;;;;5036492;28;20206;-67
2022/09/30 08:13:00;;;;;;;24.20;17.33;;;;;;;;;;5038494;28;20658;-67
2022/09/30 08:15:26;;;;;;;26.60;19.90;;;;;;;;;;5039174;28;20179;-68
2022/09/30 08:17:52;;;;;;;22.90;18.10;;;;;;;;;;5039053;28;20636;-67
2022/09/30 08:20:24;;;;;;;23.63;18.10;;;;;;;;;;5036028;28;20178;-69
2022/09/30 08:22:53;;;;;;;23.63;19.97;;;;;;;;;;5018222;28;20277;-67
2022/09/30 08:25:19;;;;;;;28.90;22.37;;;;;;;;;;5035161;28;20662;-67
2022/09/30 08:27:45;;;;;;;34.73;19.67;;;;;;;;;;5035380;28;20171;-67
2022/09/30 08:30:11;;;;;;;26.90;18.33;;;;;;;;;;5035378;28;20175;-67
2022/09/30 08:32:37;;;;;;;22.37;19.70;;;;;;;;;;5034829;28;20710;-67
2022/09/30 08:35:03;;;;;;;26.07;19.17;;;;;;;;;;5017802;28;20183;-67
2022/09/30 08:37:29;;;;;;;22.13;18.47;;;;;;;;;;5017269;28;20665;-67
2022/09/30 08:39:55;;;;;;;24.40;18.57;;;;;;;;;;5035010;28;20258;-67
2022/09/30 08:42:47;;;;;;;23.47;20.00;;;;;;;;;;5034833;28;20203;-67
2022/09/30 08:45:25;;;;;;;25.70;19.57;;;;;;;;;;5017204;28;20237;-68
2022/09/30 08:48:00;;;;;;;26.93;19.33;;;;;;;;;;5017191;28;20555;-68
2022/09/30 08:50:30;;;;;;;21.17;18.93;;;;;;;;;;5035115;28;20191;-67
2022/09/30 08:53:09;;;;;;;24.87;19.43;;;;;;;;;;5034914;28;20742;-67
2022/09/30 08:55:39;;;;;;;27.60;19.53;;;;;;;;;;5034970;28;20203;-67
2022/09/30 08:58:06;;;;;;;31.13;22.40;;;;;;;;;;5016828;28;20179;-68
2022/09/30 09:00:32;;;;;;;27.63;20.13;;;;;;;;;;5016786;28;20189;-68
2022/09/30 09:03:00;;;;;;;27.63;23.07;;;;;;;;;;5034430;28;20572;-68
2022/09/30 09:06:04;;;;;;;26.53;20.50;;;;;;;;;;5034437;28;20265;-69
2022/09/30 09:08:50;;;;;;;25.77;19.50;;;;;;;;;;4954751;29;20197;-68
2022/09/30 09:11:26;;;;;;;27.53;20.60;;;;;;;;;;4954182;29;20212;-68
2022/09/30 09:14:02;;;;;;;26.33;20.17;;;;;;;;;;5008266;28;20207;-69
2022/09/30 09:16:28;;;;;;;25.43;20.87;;;;;;;;;;5016736;28;20191;-68
2022/09/30 09:18:57;;;;;;;25.10;20.93;;;;;;;;;;5034589;28;20254;-68
2022/09/30 09:21:28;;;;;;;22.33;18.93;;;;;;;;;;5034152;28;20253;-68
2022/09/30 09:23:56;;;;;;;22.83;20.30;;;;;;;;;;5034178;28;20195;-69
2022/09/30 09:26:24;;;;;;;24.17;20.00;;;;;;;;;;5034078;28;20548;-69
2022/09/30 09:28:49;;;;;;;31.30;23.00;;;;;;;;;;5016267;28;20180;-69
2022/09/30 09:31:17;;;;;;;26.97;21.20;;;;;;;;;;5016181;28;20294;-68
2022/09/30 09:33:43;;;;;;;41.47;30.03;;;;;;;;;;5034075;28;20215;-68
2022/09/30 09:36:26;;;;;;;28.10;22.73;;;;;;;;;;5033965;28;20179;-69
2022/09/30 09:38:57;;;;;;;30.70;24.37;;;;;;;;;;5034411;28;20182;-68
2022/09/30 09:41:39;;;;;;;29.03;24.97;;;;;;;;;;5034265;28;20244;-69
2022/09/30 09:44:11;;;;;;;27.17;23.57;;;;;;;;;;5016312;28;20187;-69
2022/09/30 09:46:48;;;;;;;28.00;22.70;;;;;;;;;;5033985;28;20703;-69
2022/09/30 09:49:27;;;;;;;33.83;25.07;;;;;;;;;;5033833;28;20179;-69
2022/09/30 09:51:53;;;;;;;46.63;35.33;;;;;;;;;;5033894;28;20277;-68
2022/09/30 09:54:20;;;;;;;33.70;26.87;;;;;;;;;;5033733;28;20202;-69
2022/09/30 09:56:46;;;;;;;25.97;22.83;;;;;;;;;;5016155;28;20357;-69
2022/09/30 09:59:12;;;;;;;31.40;24.23;;;;;;;;;;5034046;28;20181;-70
2022/09/30 10:01:42;;;;;;;26.87;23.43;;;;;;;;;;5016005;28;20254;-67
2022/09/30 10:04:14;;;;;;;29.77;24.47;;;;;;;;;;5033788;28;20175;-69
2022/09/30 10:06:48;;;;;;;24.93;22.20;;;;;;;;;;5033756;28;20168;-69
2022/09/30 10:09:24;;;;;;;26.87;22.90;;;;;;;;;;5033788;28;20217;-69
2022/09/30 10:11:50;;;;;;;27.37;21.30;;;;;;;;;;5015712;28;20203;-68
2022/09/30 10:14:19;;;;;;;24.23;21.73;;;;;;;;;;5034175;28;20198;-69
2022/09/30 10:16:46;;;;;;;25.13;20.20;;;;;;;;;;5015912;28;20179;-69
2022/09/30 10:19:19;;;;;;;24.50;21.90;;;;;;;;;;5033865;28;20535;-68
2022/09/30 10:21:45;;;;;;;22.37;20.03;;;;;;;;;;5033400;28;20525;-68
2022/09/30 10:24:18;;;;;;;26.67;19.90;;;;;;;;;;5015835;28;20212;-69
2022/09/30 10:26:45;;;;;;;23.17;19.70;;;;;;;;;;5033308;28;20185;-69
2022/09/30 10:29:25;;;;;;;25.00;20.23;;;;;;;;;;5033549;28;20713;-69
2022/09/30 10:31:51;;;;;;;23.40;18.57;;;;;;;;;;5015294;28;20218;-69
2022/09/30 10:34:24;;;;;;;21.87;19.10;;;;;;;;;;5015602;28;20187;-67
2022/09/30 10:36:51;;;;;;;24.83;18.93;;;;;;;;;;5015220;28;20179;-69
2022/09/30 10:39:31;;;;;;;20.77;18.17;;;;;;;;;;5032942;28;20175;-69
2022/09/30 10:42:07;;;;;;;22.00;19.13;;;;;;;;;;5032889;28;20241;-69
2022/09/30 10:44:36;;;;;;;20.60;18.03;;;;;;;;;;5015317;28;20284;-69
2022/09/30 10:47:03;;;;;;;21.73;18.00;;;;;;;;;;5033020;28;20655;-69
2022/09/30 10:49:49;;;;;;;17.83;15.90;;;;;;;;;;5033529;28;20179;-69
2022/09/30 10:52:18;;;;;;;19.43;15.90;;;;;;;;;;5032795;28;20592;-69
2022/09/30 10:54:49;;;;;;;18.37;15.80;;;;;;;;;;5032867;28;20225;-68
2022/09/30 10:57:18;;;;;;;16.57;14.90;;;;;;;;;;5032908;28;20549;-69
2022/09/30 10:59:45;;;;;;;14.90;13.30;;;;;;;;;;5015113;28;20186;-69
2022/09/30 11:02:12;;;;;;;17.00;13.43;;;;;;;;;;5015172;28;20211;-69
2022/09/30 11:04:40;;;;;;;14.17;12.77;;;;;;;;;;5033052;28;20538;-69
2022/09/30 11:07:30;;;;;;;14.13;12.73;;;;;;;;;;5018171;28;20671;-69
2022/09/30 11:10:01;;;;;;;13.63;12.20;;;;;;;;;;5000058;28;20620;-69
2022/09/30 11:12:37;;;;;;;16.07;12.63;;;;;;;;;;5018695;28;20246;-69
2022/09/30 11:15:09;;;;;;;15.80;13.03;;;;;;;;;;5036581;28;20174;-69
2022/09/30 11:17:38;;;;;;;14.90;13.40;;;;;;;;;;5036776;28;20163;-69
2022/09/30 11:20:10;;;;;;;15.37;13.50;;;;;;;;;;5036442;28;20171;-69
2022/09/30 11:22:39;;;;;;;14.97;13.47;;;;;;;;;;5036483;28;20203;-69
2022/09/30 11:25:05;;;;;;;14.27;12.77;;;;;;;;;;5036703;28;20191;-69
2022/09/30 11:27:31;;;;;;;16.37;13.23;;;;;;;;;;5036512;28;20205;-68
2022/09/30 11:30:02;;;;;;;12.97;11.67;;;;;;;;;;5018438;28;20187;-69
2022/09/30 11:32:31;;;;;;;14.17;12.67;;;;;;;;;;5018230;28;20222;-69
2022/09/30 11:35:09;;;;;;;15.00;12.10;;;;;;;;;;5036271;28;20179;-69
2022/09/30 11:37:52;;;;;;;12.90;11.60;;;;;;;;;;5036417;28;20175;-69
2022/09/30 11:40:27;;;;;;;11.47;10.27;;;;;;;;;;5036012;28;20174;-68
2022/09/30 11:42:52;;;;;;;11.13;9.67;;;;;;;;;;5018246;28;20221;-69
2022/09/30 11:45:25;;;;;;;13.53;10.80;;;;;;;;;;5018109;28;20636;-68
2022/09/30 11:48:10;;;;;;;12.40;10.53;;;;;;;;;;5036222;28;20174;-69
2022/09/30 11:50:39;;;;;;;14.77;10.70;;;;;;;;;;5039756;28;20191;-69
2022/09/30 11:53:15;;;;;;;13.63;11.20;;;;;;;;;;5038559;28;20202;-68
2022/09/30 11:55:53;;;;;;;13.93;11.77;;;;;;;;;;5039771;28;20587;-69
2022/09/30 11:58:21;;;;;;;12.43;11.13;;;;;;;;;;5037682;28;20180;-68
2022/09/30 12:00:51;;;;;;;11.17;10.00;;;;;;;;;;5036040;28;20237;-68
2022/09/30 12:03:24;;;;;;;11.47;10.23;;;;;;;;;;5017833;28;20264;-69
2022/09/30 12:05:59;;;;;;;11.33;10.03;;;;;;;;;;5017964;28;20226;-69
2022/09/30 12:08:30;;;;;;;12.10;9.23;;;;;;;;;;5035703;28;20201;-69
2022/09/30 12:10:59;;;;;;;10.50;8.80;;;;;;;;;;5017613;28;20583;-69
2022/09/30 12:13:26;;;;;;;11.00;8.97;;;;;;;;;;5035280;28;20195;-69
2022/09/30 12:15:54;;;;;;;9.77;7.60;;;;;;;;;;5035451;28;20225;-70
2022/09/30 12:18:26;;;;;;;11.03;7.40;;;;;;;;;;5017238;28;20187;-69
2022/09/30 12:20:55;;;;;;;6.57;5.80;;;;;;;;;;5035505;28;20532;-70
2022/09/30 12:23:38;;;;;;;7.13;5.30;;;;;;;;;;5035077;28;20284;-68
2022/09/30 12:26:05;;;;;;;6.30;5.23;;;;;;;;;;5017303;28;20549;-69
2022/09/30 12:31:56;;;;;;;10.67;8.87;;;;;;;;;;5034976;28;20209;-69
2022/09/30 12:34:25;;;;;;;10.73;6.90;;;;;;;;;;5017252;28;20179;-69
2022/09/30 12:36:54;;;;;;;9.00;5.93;;;;;;;;;;5017261;28;20206;-69
2022/09/30 12:39:37;;;;;;;9.73;6.00;;;;;;;;;;5035069;28;20640;-70
2022/09/30 12:42:06;;;;;;;10.07;6.83;;;;;;;;;;5017700;28;20221;-69
2022/09/30 12:44:34;;;;;;;10.43;7.90;;;;;;;;;;5034854;28;20225;-69
2022/09/30 12:47:06;;;;;;;5.20;4.77;;;;;;;;;;5035120;28;20175;-69
2022/09/30 12:49:32;;;;;;;5.77;4.97;;;;;;;;;;5035063;28;20170;-69
2022/09/30 12:52:04;;;;;;;5.90;5.30;;;;;;;;;;5034443;28;20617;-69
2022/09/30 12:54:35;;;;;;;8.07;4.57;;;;;;;;;;5016869;28;20183;-69
2022/09/30 12:57:03;;;;;;;5.13;4.27;;;;;;;;;;5034574;28;20210;-69
2022/09/30 12:59:34;;;;;;;4.47;4.07;;;;;;;;;;5034443;28;20187;-69
2022/09/30 13:02:02;;;;;;;6.40;4.20;;;;;;;;;;5034365;28;20260;-69
2022/09/30 13:04:38;;;;;;;6.23;4.93;;;;;;;;;;5034696;28;20186;-69
2022/09/30 13:07:04;;;;;;;7.33;5.33;;;;;;;;;;5034371;28;20196;-69
2022/09/30 13:09:30;;;;;;;5.17;4.17;;;;;;;;;;5016619;28;20187;-68
2022/09/30 13:11:59;;;;;;;5.27;4.50;;;;;;;;;;5016283;28;20211;-69
2022/09/30 13:14:33;;;;;;;5.27;4.20;;;;;;;;;;5034154;28;20254;-69
2022/09/30 13:17:09;;;;;;;4.73;4.10;;;;;;;;;;5034077;28;20172;-69
2022/09/30 13:19:39;;;;;;;4.83;4.43;;;;;;;;;;5016340;28;20170;-69
2022/09/30 13:22:17;;;;;;;4.97;4.10;;;;;;;;;;5033992;28;20233;-69
2022/09/30 13:25:02;;;;;;;4.93;4.30;;;;;;;;;;5033844;28;20183;-69
2022/09/30 13:27:35;;;;;;;5.43;4.57;;;;;;;;;;5016176;28;20666;-69
2022/09/30 13:30:02;;;;;;;5.40;4.57;;;;;;;;;;5015662;28;20686;-69
2022/09/30 13:32:32;;;;;;;4.87;4.10;;;;;;;;;;5015790;28;20750;-69
2022/09/30 13:34:58;;;;;;;4.17;3.87;;;;;;;;;;5033783;28;20250;-69
2022/09/30 13:37:33;;;;;;;5.73;4.17;;;;;;;;;;5034271;28;20221;-69
2022/09/30 13:39:59;;;;;;;6.53;4.63;;;;;;;;;;5033653;28;20207;-69
2022/09/30 13:42:28;;;;;;;6.33;5.17;;;;;;;;;;5016016;28;20203;-70
2022/09/30 13:44:57;;;;;;;5.67;4.13;;;;;;;;;;5015976;28;20182;-70
2022/09/30 13:47:27;;;;;;;8.60;4.40;;;;;;;;;;5034006;28;20179;-69
2022/09/30 13:50:02;;;;;;;5.47;3.90;;;;;;;;;;5015921;28;20186;-69
2022/09/30 13:52:30;;;;;;;4.00;3.10;;;;;;;;;;5015717;28;20848;-69
2022/09/30 13:54:57;;;;;;;4.00;3.43;;;;;;;;;;5015741;28;20179;-69
2022/09/30 13:57:56;;;;;;;4.03;3.73;;;;;;;;;;5015820;28;20555;-68
2022/09/30 14:00:24;;;;;;;5.00;3.60;;;;;;;;;;4979661;28;20187;-68
2022/09/30 14:03:05;;;;;;;5.40;4.40;;;;;;;;;;5015743;28;20203;-69
2022/09/30 14:05:34;;;;;;;5.13;4.20;;;;;;;;;;5015840;28;20172;-69
2022/09/30 14:08:10;;;;;;;5.10;3.90;;;;;;;;;;5034217;28;20171;-68
2022/09/30 14:10:57;;;;;;;5.33;3.63;;;;;;;;;;5062208;23;20287;-69
2022/09/30 14:13:32;;;;;;;6.03;3.60;;;;;;;;;;5036059;28;20300;-68
2022/09/30 14:16:13;;;;;;;4.00;3.67;;;;;;;;;;5053634;28;20166;-70
2022/09/30 14:18:52;;;;;;;4.17;3.87;;;;;;;;;;5035363;28;20217;-66
2022/09/30 14:21:27;;;;;;;5.60;3.73;;;;;;;;;;5053131;28;20572;-68
2022/09/30 14:24:01;;;;;;;3.80;3.50;;;;;;;;;;5053049;28;20185;-67
2022/09/30 14:26:37;;;;;;;5.80;3.80;;;;;;;;;;5053265;28;20177;-69
2022/09/30 14:29:10;;;;;;;4.37;3.57;;;;;;;;;;5035259;28;20631;-70
2022/09/30 14:31:43;;;;;;;4.17;3.20;;;;;;;;;;5053027;28;20211;-68
2022/09/30 14:34:11;;;;;;;4.57;3.60;;;;;;;;;;5053241;28;20292;-68
2022/09/30 14:36:38;;;;;;;4.47;3.40;;;;;;;;;;5052912;28;20166;-68
2022/09/30 14:39:05;;;;;;;4.57;4.10;;;;;;;;;;5034942;28;20662;-67
2022/09/30 14:41:33;;;;;;;7.63;3.83;;;;;;;;;;5038825;28;20764;-67
2022/09/30 14:44:06;;;;;;;4.67;3.73;;;;;;;;;;5057084;28;20216;-68
2022/09/30 14:46:45;;;;;;;3.53;3.23;;;;;;;;;;5039227;28;20175;-68